MET: Información y Pronóstico Aeronáutico

///////////////////////////////////////////////////////////////////////////////////////////////////////////////////////////////////////////////////////////////////////////////////////////////////////////////////////////////////////////////

Member for

1 año 1 mes
Enviado por meteorologia el Jue, 23/11/2017 - 11:39
10-9

10 DE SETIEMBRE 2019

INFORMACION METEOROLOGICA AERONAUTICA (METAR) 12:00 UTC

Aeropuerto AEROPARQUE J. NEWBERY

10 - 12:00               METAR SABE 101200Z 13005KT 100V180 9999 BKN017 BKN100 13/10 Q1020 NOSIG =

Aeropuerto BAHIA BLANCA

10 - 12:00               METAR SAZB 101200Z 18006KT 9999 BKN015 08/07 Q1022 =

Aeropuerto BARILOCHE

10 - 12:00               METAR SAZS 101200Z 15010KT 9999 FEW024 SCT100 01/M05 Q1024 =

Aeropuerto CATAMARCA

10 - 12:00               METAR SANC 101200Z 23004KT 5000 VCDZBR OVC004 10/09 Q1020 =

Aeropuerto CHAPELCO

10 - 12:00               METAR SAZY 101200Z 16005KT 6000 -SN BKN020 SCT030 02/M00 Q1022 =

Aeropuerto COMODORO RIVADAVIA

10 - 12:00               METAR SAVC 101200Z 24006KT 190V280 9999 FEW020 SCT030 04/M00 Q1029 =

Aeropuerto CORDOBA

10 - 12:00               METAR SACO 101200Z 21003KT 7000 -DZ SCT020 BKN040 09/08 Q1021 NOSIG =

Aeropuerto CORRIENTES

10 - 12:00               METAR SARC 101200Z 14011KT 9999 SCT009 BKN060 17/15 Q1014 =

Aeropuerto EL CALAFATE

10 - 12:00               METAR SAWC 101200Z 11003KT CAVOK M05/M06 Q1025 =

Aeropuerto EL PALOMAR

10 - 12:00               METAR SADP 101200Z 15003KT 9999 FEW012 BKN014 12/10 Q1020 =

Aeropuerto ESQUEL

10 - 12:00               METAR SAVE 101200Z 00000KT CAVOK M03/M04 Q1026 =

Aeropuerto EZEIZA

10 - 12:00               METAR SAEZ 101200Z VRB02KT 3000 -DZ BR BKN005 OVC007 11/11 Q1019 TEMPO 5000 DZBR OVC004 =

Aeropuerto FORMOSA

10 - 12:00               METAR SARF 101200Z 18012KT 9999 FEW009 BKN100 BKN200 20/15 Q1012 =

Aeropuerto IGUAZU/CATARATAS

10 - 12:00               METAR SARI 101200Z 05005KT CAVOK 23/15 Q1011 =

Aeropuerto JUJUY

10 - 12:00               METAR SASJ 101200Z 18012KT 9999 SCT018 BKN025 16/10 Q1017 =

Aeropuerto LA RIOJA

10 - 12:00               METAR SANL 101200Z 34002KT 9999 OVC040 10/09 Q1020 =

Aeropuerto MALARGUE

10 - 12:00               METAR SAMM 101200Z 16007KT 9999 BKN020 03/00 Q1021 =

Aeropuerto MAR DEL PLATA

10 - 12:00               METAR SAZM 101200Z 20004KT 160V240 CAVOK 10/08 Q1019 =

Aeropuerto MENDOZA

10 - 12:00               METAR SAME 101200Z 27002KT 4000 BR BKN100 04/04 Q1021 =

Aeropuerto MORON

10 - 12:00               METAR SADM 101200Z 14003KT 9000 BKN008 OVC012 12/10 Q1019 =

Aeropuerto NEUQUEN

10 - 12:00               METAR SAZN 101200Z 14011KT 8000 -RA SCT007 BKN030 OVC045 04/01 Q1024 =

Aeropuerto PARANA

10 - 12:00               METAR SAAP 101200Z 18008KT 9999 FEW008 BKN100 13/12 Q1019 =

Aeropuerto POSADAS

10 - 12:00               METAR SARP 101200Z 14013KT CAVOK 19/16 Q1012 =

Aeropuerto PUERTO MADRYN

10 - 12:00               METAR SAVY 101200Z 20008KT 9999 FEW020TCU SCT100 03/01 Q1025 =

Aeropuerto RECONQUISTA

10 - 12:00               METAR SATR 101200Z 16010KT 6000 BKN007 OVC100 15/13 Q1017 =

Aeropuerto RESISTENCIA

10 - 12:00               METAR SARE 101200Z 15009KT 9999 SCT014 BKN019 BKN085 16/16 Q1014 =

Aeropuerto RIO CUARTO

10 - 12:00               METAR SAOC 101200Z 23008KT 9999 SCT015 BKN050 08/06 Q1008 RMK ESTIMATED WIND =

Aeropuerto RIO GALLEGOS

10 - 12:00               METAR SAWG 101200Z 29008KT CAVOK 01/M02 Q1023 =

Aeropuerto RIO GRANDE

10 - 12:00               METAR SAWE 101200Z 32010KT CAVOK 01/01 Q1019 =

Aeropuerto ROSARIO

10 - 12:00               METAR SAAR 101200Z 20007KT 9000 BKN003 OVC005 12/11 Q1020 =

Aeropuerto SALTA

10 - 12:00               METAR SASA 101200Z 05006KT 9999 FEW010 BKN020 13/09 Q1017 =

Aeropuerto SAN FERNANDO

10 - 12:00               METAR SADF 101200Z 14004KT 9999 SCT012 BKN020 13/10 Q1020 =

Aeropuerto SAN JUAN

10 - 12:00               METAR SANU 101200Z 18005KT 9999 SCT030 BKN060 08/05 Q1021 =

Aeropuerto SAN LUIS

10 - 12:00               METAR SAOU 101200Z 09015G25KT 9999 FEW010 08/04 Q1019 RMK ESTIMATED WIND =

Aeropuerto SAN RAFAEL

10 - 12:00               METAR SAMR 101200Z 25003KT 9999 FEW040 SCT100 07/03 Q1021 =

Aeropuerto SANTA ROSA

10 - 12:00               METAR SAZR 101200Z 20003KT 9000 NSC 09/04 Q1021 =

Aeropuerto SANTIAGO DEL ESTERO

10 - 12:00               METAR SANE 101200Z 14006KT 9999 SCT020 BKN180 15/09 Q1019 =

Aeropuerto SAUCE VIEJO

10 - 12:00               METAR SAAV 101200Z 20007KT 9999 SCT008 SCT100 14/12 Q1018 =

Aeropuerto TANDIL

10 - 12:00               METAR SAZT 101200Z 18009KT CAVOK 09/07 Q1020 =

Aeropuerto TERMAS DE RIO HONDO

10 - 12:00               METAR SANR 101200Z 09006KT 9999 OVC040 14/09 Q1020 =

Aeropuerto TRELEW

10 - 12:00               METAR SAVT 101200Z 25009KT 9999 FEW030TCU SCT100 03/00 Q1026 =

Aeropuerto TUCUMAN

10 - 12:00               METAR SANT 101200Z 11005KT 5000 -DZ BKN015 OVC040 12/11 Q1020 =

Aeropuerto USHUAIA

10 - 12:00               METAR SAWH 101200Z 34008KT CAVOK 03/M03 Q1016 =

Aeropuerto VIEDMA

10 - 12:00               METAR SAVV 101200Z 18012KT 9999 BKN020 OVC100 08/03 Q1023 =

Aeropuerto VILLA REYNOLDS

10 - 12:00               METAR SAOR 101200Z 00000KT 8000 SCT030 SCT100 06/06 Q1021 =

 PRONOSTICO DE AERODROMO (TAF) 11:00 UTC

Estación AEROPARQUE J. NEWBERY

10 - 11:00               TAF SABE 101100Z 1012/1112 18005KT 9999 OVC015 TX16/1018Z TN12/1110Z BECMG 1013/1016 09010KT 9999 BKN020 PROB30 1016/1020 8000 -RA BKN015 OVC040 BECMG 1020/1022 CAVOK =

Estación BAHIA BLANCA

10 - 11:00               TAF SAZB 101100Z 1012/1112 16005KT CAVOK TX08/1018Z TN02/1110Z BECMG 1013/1016 9999 SCT010 BKN030 BECMG 1018/1021 14015KT 9999 SCT040 PROB30 TEMPO 1100/1108 18012KT 5000 SHRA SCT010 BKN040 FEW050CB =

Estación BARILOCHE

10 - 11:00               TAF SAZS 101100Z 1012/1112 15015KT 9999 SCT020 SCT100 TX08/1019Z TNM01/1111Z BECMG 1022/1023 17010KT CAVOK BECMG 1102/1104 VRB03KT =

Estación CATAMARCA

10 - 11:00               TAF SANC 101100Z 1012/1112 SCT010 18010KT 4000 DZRA OVC015 TX16/1019Z TN11/1110Z BECMG 1016/1018 9999 BKN050 BECMG 1100/1103 4000 RADZ BKN015 OVC030 =

Estación CHAPELCO

10 - 11:00               TAF SAZY 101100Z 1012/1112 14010G20KT 8000 SNDZ OVC008 TX06/1018Z TNM01/1110Z BECMG 1018/1021 09010KT CAVOK PROB30 1103/1109 VRB03KT 0800 BCFG NSC =

Estación COMODORO RIVADAVIA

10 - 11:00               TAF SAVC 101100Z 1012/1112 23010KT 9999 BKN030 TX10/1018Z TN03/1012Z BECMG 1013/1015 FEW035 BECMG 1014/1016 14010KT BECMG 1018/1020 05010KT BECMG 1101/1103 34015KT =

Estación CORDOBA

10 - 11:00               TAF SACO 101100Z 1012/1112 20005KT 5000 DZ BKN010 OVC020 TX16/1019Z TN10/1110Z BECMG 1015/1018 18005KT 9999 BKN015 BKN020 BECMG 1100/1103 23005KT 6000 DZ SCT010 OVC040 =

Estación CORRIENTES

10 - 11:00               TAF SARC 101100Z 1012/1112 14010KT 9999 OVC006 SCT015 TX19/1018Z TN13/1110Z BECMG 1021/1022 8000 -RA OVC003 =

Estación EL CALAFATE

10 - 11:00               TAF SAWC 101100Z 1012/1112 VRB05KT CAVOK TX07/1018Z TNM05/1012Z PROB30 TEMPO 1105/1109 BKN030 =

Estación EL PALOMAR

10 - 11:00               TAF SADP 101100Z 1012/1112 14005KT 8000 -DZ BKN008 TX16/1018Z TN07/1110Z BECMG 1015/1018 9000 SCT010 BKN030 BECMG 1018/1021 VRB05KT 8000 -RADZ BKN010 BECMG 1100/1103 07005KT 8000 SCT020 PROB30 TEMPO 1107/1112 12005KT 0800 BCFG BKN005 =

Estación ESQUEL

10 - 11:00               TAF SAVE 101100Z 1012/1112 VRB03KT CAVOK TX06/1018Z TNM04/1012Z PROB30 TEMPO 1012/1016 SCT030 BECMG 1103/1105 23010KT =

Estación EZEIZA

10 - 11:00               TAF SAEZ 101100Z 1012/1112 14005KT 1000 -FGDZ BKN005 TX16/1018Z TN07/1110Z BECMG 1015/1018 8000 SCT010 BKN030 BECMG 1018/1021 VRB05KT 8000 -RADZ BKN010 BECMG 1100/1103 07005KT 8000 SCT020 PROB30 TEMPO 1107/1112 12005KT 0800 BCFG BKN005 =

Estación FORMOSA

10 - 11:00               TAF SARF 101100Z 1012/1112 16010KT 9999 OVC006 SCT015 TX23/1018Z TN16/1110Z BECMG 1100/1102 8000 -RA OVC003 =

Estación IGUAZU/CATARATAS

10 - 11:00               TAF SARI 101100Z 1012/1112 05010KT CAVOK TX38/1018Z TN19/1110Z PROB40 1014/1021 9999 SCT030 =

Estación JUJUY

10 - 11:00               TAF SASJ 101100Z 1012/1112 23010KT 7000 BKN015 OVC040 TX19/1019Z TN08/1110Z BECMG 1100/1103 7000 RA DZ BKN010 OVC040 =

Estación LA RIOJA

10 - 11:00               TAF SANL 101100Z 1012/1112 18005KT 6000 -RA BKN025 OVC045 TX15/1019Z TN12/1110Z BECMG 1015/1018 9999 BKN050 BECMG 1103/1106 23005KT 6000 RA BKN010 OVC030 =

Estación MAR DEL PLATA

10 - 11:00               TAF SAZM 101100Z 1012/1112 20010KT 9999 FEW010 TX14/1018Z TN06/1110Z BECMG 1013/1015 18010KT 9999 SCT030 BECMG 1102/1104 VRB03KT =

Estación MENDOZA

10 - 11:00               TAF SAME 101100Z 1012/1112 VRB03KT 9999 FEW040 TX14/1020Z TN02/1110Z TEMPO 1012/1014 00000KT 3000 BR NSC BECMG 1102/1104 BKN030 BECMG 1110/1112 FEW040 =

Estación NEUQUEN

10 - 11:00               TAF SAZN 101100Z 1012/1112 14015KT 9999 BKN030 BKN060 TX11/1018Z TN03/1111Z TEMPO 1012/1019 14020KT 9000 RA BKN010 BKN040 BECMG 1019/1021 VRB05KT 9999 BKN040 =

Estación PARANA

10 - 11:00               TAF SAAP 101100Z 1012/1112 18008KT 9000 DZ BKN005 TX16/1019Z TN09/1110Z BECMG 1018/1020 18010KT 9999 SCT025 PROB30 TEMPO 1104/1111 18003KT BCFG BKN003 =

Estación POSADAS

10 - 11:00               TAF SARP 101100Z 1012/1112 14010KT 9999 FEW030 TX28/1018Z TN17/1110Z PROB30 TEMPO 1018/1021 9000 -SHRA BKN025 FEW050CTU BECMG 1100/1103 5000 TSRA OVC010 FEW055CB =

Estación RESISTENCIA

10 - 11:00               TAF SARE 101100Z 1012/1112 14010KT 9999 OVC006 SCT015 TX19/1018Z TN13/1110Z BECMG 1021/1022 8000 -RA OVC003 =

Estación RIO CUARTO

10 - 11:00               TAF SAOC 101100Z 1012/1112 23005KT 6000 RADZ BKN015 TX15/1019Z TN05/1110Z OVC040 BECMG 1018/1021 8000 OVC030 BECMG 1100/1103 18010KT 3000 DZ SCT010 OVC040 =

Estación RIO GALLEGOS

10 - 11:00               TAF SAWG 101100Z 1012/1112 30015KT CAVOK TX13/1018Z TN00/1012Z BECMG 1109/1111 32012KT FEW030 BKN070 =

Estación RIO GRANDE

10 - 11:00               TAF SAWE 101100Z 1012/1112 32010KT CAVOK TX11/1018Z TNM01/1012Z BECMG 1015/1017 30020KT BECMG 1106/1108 30025G40KT -RA SCT030 BKN060 =

Estación ROSARIO

10 - 11:00               TAF SAAR 101100Z 1012/1112 14005KT 9999 SCT006 OVC008 TX17/1018Z TN10/1010Z TEMPO 1012/1014 7000 -DZ BKN005 OVC010 BECMG 1014/1016 16010KT 9999 SCT015 BKN020 BECMG 1016/1018 10005KT 6000 RA BKN012 FEW035TCU BKN040 BECMG 1023/1102 09003KT 7000 SCT010 BKN018 BECMG 1106/1108 18002KT 1500 BR BKN010 =

Estación SALTA

10 - 11:00               TAF SASA 101100Z 1012/1112 02005KT 7000 RA BKN015 OVC030 TX17/1019Z TN09/1110Z BECMG 1021/1100 5000 -RA BKN010 OVC030 =

Estación SAN FERNANDO

10 - 11:00               TAF SADF 101100Z 1012/1112 16005KT 9999 SCT015 BKN020 TX16/1018Z TN11/1110Z BECMG 1015/1017 09010KT PROB30 TEMPO 1017/1021 9000 -RA BKN015 BECMG 1101/1103 09005KT 9999 SCT015 =

Estación SAN JUAN

10 - 11:00               TAF SANU 101100Z 1012/1112 18010KT CAVOK TX14/1020Z TN04/1010Z TEMPO 1012/1014 16003KT 3000 BR NSC =

Estación SAN LUIS

10 - 11:00               TAF SAOU 101100Z 1012/1112 09010KT 9999 FEW030 TX12/1019Z TN04/1009Z BECMG 1102/1104 VRB03KT 9999 SCT030 =

Estación SAN RAFAEL

10 - 11:00               TAF SAMR 101100Z 1012/1112 VRB03KT 9999 BKN040 TX10/1020Z TN03/1010Z TEMPO 1012/1014 00000KT 5000 BR BKN040 BECMG 1013/1015 CAVOK BECMG 1103/1105 9999 BKN030 =

Estación SANTA ROSA

10 - 11:00               TAF SAZR 101100Z 1012/1112 VRB07KT CAVOK TX16/1019Z TN04/1110Z TEMPO 1013/1018 7000 -RADZ SCT010 OVC030 BECMG 1100/1103 18015KT 9999 SCT030 BECMG 1104/1107 3000 +RA SCT008 BKN030 =

Estación SANTIAGO DEL ESTERO

10 - 11:00               TAF SANE 101100Z 1012/1112 18010KT 9999 BKN025 OVC050 TX21/1019Z TN13/1110Z BECMG 11021/1100 18010KT 9999 SCT020 BKN050 =

Estación SAUCE VIEJO

10 - 11:00               TAF SAAV 101100Z 1012/1112 18008KT 9000 DZ BKN005 TX17/1019Z TN10/1110Z BECMG 1018/1020 18010KT 9999 SCT025 PROB30 TEMPO 1104/1111 18003KT BCFG BKN003 =

Estación TERMAS DE RIO HONDO

10 - 11:00               TAF SANR 101100Z 1012/1112 20005KT 5000 DZ TX21/1019Z TN13/1110Z SCT010 OVC040 BECMG 1103/1106 VRB03KT 3000 RADZ BKN010 OVC035 =

Estación TRELEW

10 - 11:00               TAF SAVT 101100Z 1012/1112 25008KT 9999 FEW040TCU TX10/1018Z TN02/1012Z BECMG 1013/1015 BKN030 FEW040TCU PROB30 TEMPO 1015/1019 16010KT -SHRA BKN030 SCT040CB BECMG 1019/1021 VRB05KT CAVOK =

Estación TUCUMAN

10 - 11:00               TAF SANT 101100Z 1012/1112 20010KT 3000 RA DZ SCT010 OVC030 TX16/1019Z TN12/1110Z BECMG 1016/1019 9999 SCT020 BKN060 BECMG 1103/1106 4000 RA BKN015 OVC040 =

Estación USHUAIA

10 - 11:00               TAF SAWH 101100Z 1012/1112 32010KT 9999 FEW030 SCT090 TX07/1018Z TN01/1012Z BECMG 1016/1018 32015KT BECMG 1104/1106 32015G30KT -RA BKN030 BKN060 =

Estación VIEDMA

10 - 11:00               TAF SAVV 101100Z 1012/1112 18012KT 9999 SCT015 BKN070 TX11/1018Z TN06/1012Z PROB40 TEMPO 1014/1019 6000 SHRA BKN020 SCT040CB BECMG 1019/1021 20006KT BKN030 BECMG 1104/1106 VRB05KT FEW030 =